Time;durP1;ratioP1;P1;durP2;ratioP2;P2;SDS_P1;SDS_P2;PMS_P1;PMS_P2;Temp;Humidity;BMP_temperature;BMP_pressure;BME280_temperature;BME280_humidity;BME280_pressure;Samples;Min_cycle;Max_cycle;Signal;HPM_P1;HPM_P2
2021/06/13 00:02:01;;;;;;;9.13;5.13;;;18.60;71.70;;;18.18;55.89;95200.41;5053154;28;20201;-82
2021/06/13 00:04:29;;;;;;;7.22;4.88;;;18.40;71.40;;;18.12;56.14;95210.09;5049314;28;20219;-82
2021/06/13 00:06:56;;;;;;;5.88;5.28;;;18.40;71.50;;;18.04;56.12;95197.16;5015416;28;20211;-83
2021/06/13 00:09:22;;;;;;;6.88;5.07;;;18.40;71.50;;;17.97;56.34;95212.38;5009336;28;20312;-82
2021/06/13 00:11:50;;;;;;;6.65;4.68;;;18.20;71.40;;;17.95;56.01;95219.78;4815234;29;23447;-83
2021/06/13 00:16:52;;;;;;;5.72;5.05;;;18.20;71.70;;;17.90;56.60;95220.44;5148929;27;20737;-83
2021/06/13 00:19:20;;;;;;;5.05;4.55;;;18.10;71.80;;;17.86;56.46;95224.63;5127337;27;20218;-82
2021/06/13 00:21:46;;;;;;;5.13;4.63;;;18.00;71.80;;;17.86;56.60;95225.41;5087705;28;20253;-82
2021/06/13 00:24:13;;;;;;;5.75;4.45;;;18.10;71.90;;;17.83;56.61;95228.50;5093774;28;20214;-82
2021/06/13 00:26:42;;;;;;;8.93;5.22;;;18.10;72.00;;;17.82;56.33;95223.44;5052899;28;20231;-82
2021/06/13 00:29:09;;;;;;;7.03;4.63;;;18.00;71.90;;;17.86;56.43;95230.72;4955038;28;20226;-82
2021/06/13 00:31:36;;;;;;;5.95;4.57;;;18.00;71.90;;;17.89;56.32;95235.56;4895645;29;20678;-82
2021/06/13 00:34:04;;;;;;;6.97;4.72;;;18.00;71.90;;;17.91;56.17;95241.44;4819705;29;20236;-82
2021/06/13 00:38:33;;;;;;;4.78;3.80;;;18.00;71.80;;;17.92;56.08;95227.13;5125486;27;20665;-81
2021/06/13 00:41:00;;;;;;;6.07;3.75;;;18.00;71.50;;;17.93;55.75;95234.06;5084046;28;20651;-83
2021/06/13 00:43:27;;;;;;;5.95;4.32;;;18.10;71.60;;;18.00;55.58;95243.78;5048560;28;20231;-82
2021/06/13 00:45:53;;;;;;;3.95;3.38;;;18.00;71.50;;;17.99;55.98;95237.69;5006439;28;20225;-83
2021/06/13 00:48:20;;;;;;;5.75;3.65;;;18.00;71.60;;;18.03;55.75;95249.44;5015860;28;20644;-83
2021/06/13 00:50:51;;;;;;;7.93;4.07;;;18.10;71.30;;;18.00;55.06;95243.78;5000761;28;20637;-83
2021/06/13 00:53:20;;;;;;;4.43;4.00;;;18.10;71.20;;;18.00;55.30;95243.78;4938631;28;20232;-83
2021/06/13 00:55:57;;;;;;;6.93;3.95;;;18.10;71.10;;;17.96;55.43;95247.97;4693133;29;20312;-83
2021/06/13 00:58:35;;;;;;;5.20;3.63;;;18.00;71.00;;;17.97;55.32;95255.69;5142613;27;20721;-83
2021/06/13 01:01:03;;;;;;;4.43;3.53;;;18.10;71.10;;;17.96;55.36;95255.91;5092101;28;20205;-83
2021/06/13 01:03:33;;;;;;;7.13;4.05;;;18.10;71.20;;;17.97;55.06;95246.91;5101831;28;20287;-82
2021/06/13 01:06:00;;;;;;;5.97;4.20;;;18.10;70.60;;;17.89;55.05;95248.03;5044607;28;20206;-82
2021/06/13 01:08:53;;;;;;;4.53;3.72;;;18.00;70.60;;;17.83;54.76;95252.38;4982767;28;20225;-82
2021/06/13 01:11:31;;;;;;;4.93;3.50;;;18.00;70.50;;;17.80;54.82;95257.34;4897402;29;20700;-84
2021/06/13 01:14:14;;;;;;;4.95;4.00;;;18.00;70.50;;;17.76;55.13;95257.03;4864894;29;20250;-82
2021/06/13 01:20:02;;;;;;;4.25;3.80;;;17.90;70.60;;;17.57;55.30;95251.78;5135965;27;20537;-82
2021/06/13 01:23:34;;;;;;;4.75;4.00;;;17.90;70.70;;;17.50;55.14;95263.53;5099022;28;20691;-82
2021/06/13 01:26:36;;;;;;;4.65;3.30;;;17.80;70.70;;;17.44;55.46;95262.56;5024431;28;20208;-82
2021/06/13 01:29:12;;;;;;;5.85;4.03;;;17.70;70.90;;;17.43;55.54;95266.25;4983911;28;20220;-82
2021/06/13 01:31:57;;;;;;;4.13;3.50;;;17.70;70.80;;;17.41;55.73;95266.50;4869456;29;20674;-81
2021/06/13 01:34:36;;;;;;;6.18;3.50;;;17.70;71.10;;;17.38;55.71;95266.13;4777240;29;20306;-81
2021/06/13 01:37:14;;;;;;;4.72;3.42;;;17.60;70.90;;;17.34;55.29;95265.78;4637788;30;20236;-83
2021/06/13 01:39:58;;;;;;;7.32;4.07;;;17.70;71.00;;;17.31;55.65;95268.06;5133000;27;20561;-82
2021/06/13 01:42:28;;;;;;;6.10;3.70;;;17.60;71.00;;;17.26;55.44;95264.25;5069856;28;20569;-82
2021/06/13 01:45:03;;;;;;;7.80;4.43;;;17.60;70.80;;;17.21;55.64;95273.91;5051241;28;20241;-82
2021/06/13 01:47:32;;;;;;;4.15;3.10;;;17.50;70.80;;;17.15;55.24;95272.97;5031149;28;20211;-82
2021/06/13 01:50:03;;;;;;;5.53;3.40;;;17.40;70.50;;;17.10;55.45;95270.16;4951131;28;20597;-82
2021/06/13 01:52:34;;;;;;;3.92;3.40;;;17.40;70.80;;;17.09;55.72;95276.53;4871643;29;20228;-82
2021/06/13 01:55:04;;;;;;;3.92;3.17;;;17.40;70.70;;;17.07;55.56;95278.59;4787081;29;20246;-81
2021/06/13 01:57:31;;;;;;;6.60;3.45;;;17.30;70.70;;;17.06;55.17;95274.31;4714401;30;20796;-83
2021/06/13 02:02:19;;;;;;;6.18;3.00;;;17.30;70.60;;;16.99;55.23;95289.47;5150565;27;20622;-81
2021/06/13 02:04:48;;;;;;;5.20;2.92;;;17.30;70.50;;;16.96;55.27;95278.28;5088250;28;20697;-82
2021/06/13 02:07:18;;;;;;;5.47;3.35;;;17.20;70.50;;;16.95;54.94;95287.28;5108044;28;20212;-82
2021/06/13 02:09:47;;;;;;;5.43;2.90;;;17.20;70.60;;;16.92;55.14;95279.78;5044494;28;20596;-82
2021/06/13 02:12:18;;;;;;;4.30;2.75;;;17.10;71.30;;;16.89;54.85;95282.03;5032046;28;20269;-82
2021/06/13 02:14:59;;;;;;;5.07;2.70;;;17.10;70.20;;;16.81;55.00;95270.69;4988377;28;20583;-82
2021/06/13 02:17:35;;;;;;;4.43;2.70;;;17.10;70.20;;;16.84;54.97;95279.25;4921949;28;20270;-82
2021/06/13 02:20:12;;;;;;;4.63;2.80;;;17.10;70.30;;;16.82;54.86;95282.13;4602481;29;20241;-82
2021/06/13 02:22:52;;;;;;;3.30;2.70;;;17.00;70.10;;;16.78;54.81;95288.88;5150014;27;20382;-82
2021/06/13 02:25:23;;;;;;;2.60;2.40;;;17.00;70.10;;;16.74;54.73;95293.81;5082747;28;20216;-82
2021/06/13 02:27:58;;;;;;;3.45;2.60;;;16.90;70.10;;;16.72;54.50;95303.84;5072992;28;20264;-82
2021/06/13 02:30:37;;;;;;;3.83;2.80;;;16.90;70.10;;;16.68;54.90;95299.19;4963943;28;20255;-83
2021/06/13 02:33:09;;;;;;;4.45;2.72;;;16.90;70.20;;;16.64;54.57;95301.47;4978298;28;20213;-83
2021/06/13 02:35:39;;;;;;;3.83;2.40;;;16.90;70.20;;;16.61;54.82;95304.53;4912622;29;20674;-81
2021/06/13 02:38:06;;;;;;;5.85;2.70;;;16.90;70.30;;;16.54;54.85;95301.97;4809001;29;20238;-82
2021/06/13 02:41:33;;;;;;;5.97;2.95;;;16.80;70.10;;;16.48;55.07;95303.66;5150010;27;20565;-82
2021/06/13 02:44:02;;;;;;;4.78;2.78;;;16.80;70.20;;;16.46;54.77;95313.66;5079414;28;20228;-81
2021/06/13 02:46:34;;;;;;;4.32;2.65;;;16.80;70.20;;;16.43;54.95;95319.38;5039423;28;20212;-82
2021/06/13 02:49:03;;;;;;;4.07;2.60;;;16.70;70.30;;;16.43;54.82;95321.22;4989227;28;20325;-81
2021/06/13 02:51:42;;;;;;;5.20;2.70;;;16.60;70.20;;;16.40;55.13;95319.03;4958968;28;20267;-82
2021/06/13 02:54:10;;;;;;;4.05;2.63;;;16.60;70.20;;;16.38;55.11;95321.88;4963564;28;20567;-81
2021/06/13 02:56:54;;;;;;;4.85;2.75;;;16.60;69.90;;;16.33;54.78;95322.53;4717586;29;20221;-82
2021/06/13 02:59:56;;;;;;;4.15;2.70;;;16.50;69.70;;;16.25;54.50;95335.25;4549716;31;20254;-82
2021/06/13 03:02:36;;;;;;;3.88;2.90;;;16.50;69.50;;;16.19;54.16;95333.47;5145324;27;20307;-82
2021/06/13 03:05:06;;;;;;;7.10;2.65;;;16.60;69.30;;;16.13;54.09;95325.34;5067928;28;20224;-82
2021/06/13 03:07:36;;;;;;;5.68;2.47;;;16.40;69.20;;;16.07;54.17;95342.09;5048164;28;20234;-82
2021/06/13 03:10:09;;;;;;;3.40;2.30;;;16.50;69.40;;;16.01;53.87;95340.31;5029670;28;20224;-81
2021/06/13 03:12:38;;;;;;;4.57;2.60;;;16.30;69.20;;;16.00;54.27;95346.63;4995760;28;20241;-81
2021/06/13 03:15:08;;;;;;;4.70;2.60;;;16.30;69.30;;;16.00;54.30;95346.63;4918028;29;20229;-82
2021/06/13 03:17:38;;;;;;;2.40;2.20;;;16.30;69.40;;;15.99;54.25;95339.69;4790161;29;20273;-81
2021/06/13 03:20:17;;;;;;;3.45;2.20;;;16.30;69.30;;;16.02;53.74;95341.94;5150763;27;20640;-82
2021/06/13 03:22:45;;;;;;;3.70;2.38;;;16.30;69.30;;;16.02;53.88;95347.22;5095606;28;20205;-81
2021/06/13 03:25:14;;;;;;;3.38;2.20;;;16.20;69.30;;;16.03;54.06;95355.94;5065739;28;20745;-81
2021/06/13 03:27:44;;;;;;;3.67;2.25;;;16.20;69.30;;;16.00;53.92;95355.38;5037695;28;20242;-82
2021/06/13 03:30:17;;;;;;;4.75;2.22;;;16.20;69.30;;;15.97;53.77;95352.34;4981563;28;20687;-81
2021/06/13 03:32:44;;;;;;;3.55;2.40;;;16.10;69.20;;;15.95;54.04;95360.50;4948455;28;20212;-83
2021/06/13 03:35:15;;;;;;;4.25;2.13;;;16.10;69.20;;;15.92;53.79;95370.72;4913180;29;20239;-82
2021/06/13 03:37:43;;;;;;;4.70;2.25;;;16.10;69.10;;;15.88;53.83;95374.78;4783618;29;20292;-82
2021/06/13 03:42:44;;;;;;;4.03;2.17;;;16.20;69.30;;;15.82;53.98;95382.56;5150511;27;20646;-82
2021/06/13 03:45:13;;;;;;;3.00;2.38;;;16.10;69.20;;;15.83;53.47;95389.47;5107625;28;20216;-81
2021/06/13 03:47:41;;;;;;;3.90;2.50;;;16.00;69.00;;;15.80;53.56;95386.41;5085206;28;20211;-81
2021/06/13 03:50:10;;;;;;;3.45;2.60;;;16.00;69.00;;;15.80;53.80;95384.56;5027024;28;20307;-81
2021/06/13 03:52:39;;;;;;;3.70;2.35;;;16.00;69.10;;;15.76;53.54;95380.72;4974902;28;22533;-81
2021/06/13 03:55:08;;;;;;;3.80;2.10;;;16.00;69.00;;;15.75;53.85;95381.75;4887350;28;20232;-81
2021/06/13 03:57:35;;;;;;;4.15;2.20;;;16.00;68.90;;;15.69;53.25;95379.97;4739981;29;20751;-81
2021/06/13 04:00:06;;;;;;;3.00;2.05;;;16.00;68.80;;;15.67;53.15;95388.13;4586468;30;20603;-82
2021/06/13 04:05:10;;;;;;;3.92;1.90;;;15.90;68.60;;;15.60;53.41;95378.56;5110404;27;20696;-81
2021/06/13 04:07:42;;;;;;;4.70;2.50;;;15.90;68.80;;;15.58;53.37;95381.44;5045053;28;20203;-82
2021/06/13 04:10:11;;;;;;;3.28;2.35;;;15.90;68.60;;;15.59;53.21;95387.56;5049738;28;20224;-81
2021/06/13 04:12:41;;;;;;;3.75;2.10;;;15.80;68.40;;;15.56;53.32;95380.81;4979069;28;20239;-81
2021/06/13 04:15:09;;;;;;;2.92;1.90;;;15.80;68.80;;;15.61;53.53;95388.97;4938966;28;20219;-81
2021/06/13 04:17:37;;;;;;;4.88;2.05;;;15.80;68.80;;;15.65;53.12;95394.63;4830604;29;20673;-81
2021/06/13 04:20:08;;;;;;;3.13;2.00;;;15.80;68.70;;;15.72;53.23;95395.41;4684164;30;20254;-81
2021/06/13 04:22:38;;;;;;;2.42;2.00;;;15.80;68.80;;;15.79;53.57;95398.81;4508189;31;20228;-81
2021/06/13 04:25:17;;;;;;;3.92;2.40;;;15.80;69.00;;;15.84;52.97;95395.56;5159176;27;20329;-81
2021/06/13 04:27:47;;;;;;;3.35;2.10;;;15.90;69.10;;;15.93;53.34;95396.13;5119794;27;20207;-81
2021/06/13 04:30:14;;;;;;;6.13;2.55;;;15.90;69.00;;;15.97;52.88;95398.13;5103100;28;20697;-81
2021/06/13 04:32:41;;;;;;;4.28;2.30;;;16.00;69.80;;;16.02;52.84;95396.69;5100376;28;20281;-81
2021/06/13 04:35:12;;;;;;;3.03;2.03;;;16.00;68.90;;;16.03;53.16;95387.69;5014781;28;20247;-82
2021/06/13 04:37:39;;;;;;;4.78;2.28;;;16.00;68.80;;;16.08;52.85;95404.56;4960351;28;20198;-81
2021/06/13 04:40:07;;;;;;;4.75;2.60;;;16.10;68.90;;;16.11;52.77;95401.50;4929909;28;20253;-82
2021/06/13 04:42:35;;;;;;;3.97;2.03;;;16.10;68.60;;;16.15;52.98;95407.19;4804373;29;20227;-81
2021/06/13 04:46:57;;;;;;;3.05;2.15;;;16.20;68.80;;;16.16;52.23;95411.44;5142170;27;20644;-82
2021/06/13 04:49:45;;;;;;;5.22;2.47;;;16.30;68.80;;;16.23;52.91;95406.91;5097521;28;20213;-81
2021/06/13 04:52:18;;;;;;;4.68;2.53;;;16.30;68.70;;;16.32;52.73;95420.72;5030348;28;20215;-81
2021/06/13 04:54:56;;;;;;;3.22;2.35;;;16.30;68.50;;;16.36;52.17;95429.03;5020363;28;20233;-81
2021/06/13 04:57:39;;;;;;;5.53;2.20;;;16.40;68.50;;;16.42;52.62;95421.03;5006588;28;20205;-81
2021/06/13 05:00:07;;;;;;;2.80;2.00;;;16.40;68.60;;;16.51;52.36;95423.41;4907246;29;20237;-81
2021/06/13 05:02:38;;;;;;;4.97;2.30;;;16.50;68.90;;;16.59;52.40;95421.28;4863512;29;20594;-82
2021/06/13 05:07:41;;;;;;;4.00;2.15;;;16.50;68.90;;;16.78;52.37;95435.41;5150354;27;20548;-81
2021/06/13 05:10:10;;;;;;;3.63;2.00;;;16.60;68.50;;;16.82;52.14;95422.53;5069538;28;20748;-81
2021/06/13 05:12:51;;;;;;;4.18;2.20;;;16.70;68.50;;;16.86;51.89;95436.94;5082391;28;20659;-81
2021/06/13 05:15:21;;;;;;;4.15;2.20;;;16.80;68.30;;;16.90;51.82;95430.16;5019465;28;20200;-81
2021/06/13 05:17:48;;;;;;;3.75;2.08;;;16.80;68.40;;;16.93;52.00;95435.06;4952415;28;20216;-82
2021/06/13 05:20:16;;;;;;;4.90;2.40;;;16.90;68.30;;;16.96;51.20;95439.13;4921556;29;20234;-82
2021/06/13 05:22:55;;;;;;;5.50;2.22;;;16.90;68.10;;;16.95;50.86;95438.34;4827447;29;20300;-81
2021/06/13 05:25:26;;;;;;;3.72;2.10;;;17.00;67.60;;;16.94;51.20;95425.28;4668608;30;20249;-82
2021/06/13 05:28:06;;;;;;;4.28;1.92;;;17.00;67.80;;;16.98;51.28;95441.56;5129414;27;20311;-82
2021/06/13 05:30:34;;;;;;;3.67;1.95;;;17.00;67.70;;;16.97;51.45;95440.75;5089710;28;20223;-82
2021/06/13 05:33:02;;;;;;;3.38;1.83;;;17.00;67.60;;;16.99;51.46;95444.00;5086813;28;20209;-82
2021/06/13 05:35:29;;;;;;;5.25;2.33;;;17.00;67.70;;;17.05;51.46;95447.59;5046309;28;20215;-82
2021/06/13 05:37:57;;;;;;;5.10;2.20;;;17.10;67.80;;;17.07;50.90;95453.50;5030824;28;20223;-82
2021/06/13 05:40:26;;;;;;;3.50;2.45;;;17.10;67.60;;;17.08;50.50;95444.53;5010568;28;20210;-82
2021/06/13 05:42:54;;;;;;;2.60;2.10;;;17.20;67.50;;;17.11;50.37;95455.50;4997862;28;20203;-83
2021/06/13 05:45:24;;;;;;;3.83;2.13;;;17.20;67.10;;;17.15;50.95;95450.56;4773696;29;20681;-82
2021/06/13 05:47:58;;;;;;;4.60;2.45;;;17.20;68.30;;;17.24;51.13;95453.75;5149766;27;20382;-82
2021/06/13 05:50:27;;;;;;;3.80;2.13;;;17.20;67.60;;;17.29;50.37;95452.03;5084479;28;20199;-81
2021/06/13 05:52:58;;;;;;;3.55;2.03;;;17.20;67.30;;;17.35;50.82;95453.00;5066973;28;20622;-81
2021/06/13 05:55:26;;;;;;;4.88;2.47;;;17.20;67.30;;;17.43;50.60;95454.53;5064866;28;20241;-82
2021/06/13 05:57:54;;;;;;;3.95;2.38;;;17.30;67.20;;;17.50;50.56;95460.56;5028343;28;20216;-82
2021/06/13 06:00:27;;;;;;;2.83;2.20;;;17.40;67.30;;;17.57;49.96;95461.31;4937342;28;20676;-82
2021/06/13 06:02:54;;;;;;;3.63;2.20;;;17.50;67.10;;;17.62;49.25;95458.00;4941818;28;20220;-81
2021/06/13 06:05:22;;;;;;;4.75;2.40;;;17.50;66.50;;;17.63;49.39;95462.28;4866245;29;20312;-81
2021/06/13 06:09:53;;;;;;;6.45;2.72;;;17.50;66.70;;;17.65;49.90;95462.03;5132733;27;21158;-82
2021/06/13 06:12:20;;;;;;;5.50;2.50;;;17.60;66.70;;;17.70;49.80;95475.44;5083743;28;20202;-82
2021/06/13 06:14:47;;;;;;;4.38;2.10;;;17.70;66.70;;;17.75;49.58;95476.41;5078376;28;20285;-82
2021/06/13 06:17:14;;;;;;;4.63;2.10;;;17.70;66.70;;;17.85;49.64;95470.56;5076044;28;20606;-81
2021/06/13 06:19:42;;;;;;;5.00;2.30;;;17.70;66.80;;;17.90;49.15;95462.72;5011830;28;20235;-81
2021/06/13 06:22:09;;;;;;;4.35;2.13;;;17.80;66.50;;;17.99;49.11;95467.78;4973891;28;20205;-82
2021/06/13 06:24:36;;;;;;;4.20;2.40;;;17.80;66.40;;;18.04;48.76;95470.56;4913412;28;20666;-82
2021/06/13 06:27:03;;;;;;;4.20;2.45;;;17.90;66.00;;;18.09;48.64;95481.31;4695666;29;20221;-81
2021/06/13 06:31:50;;;;;;;4.38;2.15;;;17.90;66.10;;;18.27;49.13;95479.66;5150270;27;20637;-81
2021/06/13 06:34:18;;;;;;;3.47;2.25;;;18.10;66.50;;;18.39;48.76;95472.53;5087528;28;20225;-82
2021/06/13 06:36:46;;;;;;;4.28;2.47;;;18.10;66.50;;;18.50;48.03;95469.06;5053682;28;20241;-81
2021/06/13 06:39:14;;;;;;;5.63;2.40;;;18.30;66.30;;;18.60;48.20;95465.06;5046720;28;20407;-82
2021/06/13 06:41:41;;;;;;;3.38;2.17;;;18.30;66.10;;;18.71;48.60;95478.38;5038173;28;20207;-83
2021/06/13 06:44:10;;;;;;;3.60;1.92;;;18.40;66.30;;;18.81;48.50;95472.50;5019262;28;20258;-83
2021/06/13 06:46:37;;;;;;;6.32;2.05;;;18.50;66.10;;;18.85;48.24;95470.97;4895653;28;20208;-82
2021/06/13 06:49:06;;;;;;;5.00;2.55;;;18.60;66.10;;;18.86;47.41;95477.13;4709264;29;20243;-83
2021/06/13 06:53:00;;;;;;;4.45;2.33;;;18.70;65.60;;;18.84;46.70;95484.50;5139252;27;20567;-81
2021/06/13 06:55:28;;;;;;;3.17;2.30;;;18.70;65.10;;;18.81;47.83;95482.28;5109700;28;20204;-81
2021/06/13 06:57:55;;;;;;;3.47;2.40;;;18.70;65.30;;;18.83;47.58;95481.03;5109476;28;20212;-82
2021/06/13 07:00:22;;;;;;;3.05;2.05;;;18.70;65.20;;;18.86;47.35;95479.78;5070327;28;20206;-82
2021/06/13 07:02:49;;;;;;;4.43;2.20;;;18.70;65.30;;;18.93;47.96;95483.16;5041289;28;20313;-82
2021/06/13 07:05:16;;;;;;;2.30;2.10;;;18.80;65.60;;;19.04;47.72;95489.50;5007784;28;20201;-82
2021/06/13 07:07:43;;;;;;;6.10;2.50;;;18.80;65.40;;;19.14;47.51;95491.59;4920734;28;20212;-82
2021/06/13 07:10:11;;;;;;;4.95;2.13;;;18.90;65.50;;;19.26;47.56;95486.28;4802412;29;21963;-82
2021/06/13 07:13:57;;;;;;;2.92;1.90;;;18.90;65.70;;;19.42;47.67;95480.25;5140779;27;20670;-81
2021/06/13 07:16:24;;;;;;;2.10;1.90;;;19.10;65.50;;;19.58;46.91;95502.66;5084558;28;20213;-81
2021/06/13 07:18:51;;;;;;;5.50;2.50;;;19.10;65.10;;;19.65;46.20;95492.72;5068723;28;20230;-82
2021/06/13 07:21:18;;;;;;;3.83;2.35;;;19.30;64.80;;;19.79;46.38;95492.44;4983290;28;20234;-82
2021/06/13 07:23:45;;;;;;;5.75;2.33;;;19.30;65.00;;;19.88;45.50;95495.56;4990982;28;20239;-83
2021/06/13 07:26:11;;;;;;;6.15;2.70;;;19.50;64.50;;;19.90;43.68;95502.28;4926020;29;20208;-82
2021/06/13 07:28:39;;;;;;;7.43;2.47;;;19.50;63.10;;;19.84;44.59;95485.38;4896854;28;20320;-82
2021/06/13 07:31:06;;;;;;;3.83;2.40;;;19.60;63.20;;;19.72;44.35;95494.44;4733617;29;22978;-81
2021/06/13 07:35:54;;;;;;;3.17;1.90;;;19.60;63.10;;;19.63;45.59;95505.44;5136703;27;20968;-82
2021/06/13 07:38:21;;;;;;;5.88;2.08;;;19.60;63.80;;;19.69;45.32;95495.72;5098088;28;20253;-81
2021/06/13 07:40:48;;;;;;;5.43;2.03;;;19.60;63.50;;;19.79;45.97;95498.56;5093518;28;20205;-82
2021/06/13 07:43:19;;;;;;;3.10;1.90;;;19.60;63.90;;;19.87;45.38;95500.06;5067699;28;20584;-80
2021/06/13 07:45:47;;;;;;;5.20;2.25;;;19.70;63.70;;;19.87;45.26;95493.94;5026819;28;20245;-82
2021/06/13 07:48:14;;;;;;;4.60;2.50;;;19.60;64.10;;;19.78;45.30;95499.59;4992790;28;20229;-81
2021/06/13 07:50:42;;;;;;;6.82;2.75;;;19.70;63.20;;;19.73;45.38;95498.72;4895046;29;20224;-81
2021/06/13 07:53:10;;;;;;;4.85;2.40;;;19.60;63.10;;;19.70;45.10;95499.16;4704085;29;20283;-82
2021/06/13 07:57:21;;;;;;;4.13;2.20;;;19.70;63.20;;;19.69;43.90;95517.00;5147197;27;20655;-82
2021/06/13 07:59:47;;;;;;;3.40;2.40;;;19.60;63.20;;;19.66;44.74;95504.97;5091481;28;20229;-82
2021/06/13 08:02:14;;;;;;;4.95;2.40;;;19.60;63.10;;;19.65;44.12;95505.19;5051334;28;20218;-82
2021/06/13 08:04:49;;;;;;;3.35;2.60;;;19.60;63.10;;;19.68;44.42;95492.22;5030523;28;20228;-83
2021/06/13 08:07:16;;;;;;;5.45;2.38;;;19.60;63.10;;;19.83;44.01;95497.09;4965625;28;20346;-82
2021/06/13 08:09:53;;;;;;;2.83;1.98;;;19.60;63.20;;;19.90;43.72;95506.81;4883440;29;20314;-82
2021/06/13 08:12:20;;;;;;;2.80;2.20;;;19.70;63.20;;;19.93;43.96;95501.00;4774595;29;20228;-83
2021/06/13 08:14:47;;;;;;;5.57;2.38;;;19.80;63.30;;;19.91;43.88;95501.22;4688177;30;20351;-82
2021/06/13 08:18:28;;;;;;;3.42;2.22;;;19.70;63.20;;;19.90;43.47;95509.47;5144348;27;20715;-81
2021/06/13 08:20:58;;;;;;;5.22;2.50;;;19.80;62.50;;;19.95;43.90;95513.03;5051813;28;20217;-81
2021/06/13 08:23:26;;;;;;;3.58;2.40;;;19.80;63.30;;;20.00;43.38;95510.44;5050911;28;20251;-81
2021/06/13 08:25:53;;;;;;;3.95;2.53;;;19.80;63.60;;;20.09;43.72;95496.75;5048693;28;20213;-81
2021/06/13 08:28:20;;;;;;;4.10;2.35;;;19.80;63.00;;;20.13;43.78;95506.72;4979043;28;20277;-80
2021/06/13 08:30:47;;;;;;;4.75;2.40;;;19.90;62.80;;;20.16;43.56;95500.09;4932525;28;20219;-81
2021/06/13 08:33:14;;;;;;;4.80;2.53;;;19.90;62.60;;;20.22;43.14;95507.13;4830568;29;20576;-81
2021/06/13 08:35:42;;;;;;;3.97;2.40;;;19.90;62.60;;;20.29;42.88;95501.69;4654716;30;20315;-81
2021/06/13 08:39:56;;;;;;;4.95;2.92;;;20.00;62.50;;;20.38;43.14;95502.09;5132311;27;20581;-81
2021/06/13 08:42:23;;;;;;;3.30;2.20;;;20.10;62.60;;;20.40;43.65;95508.00;5124097;28;20293;-81
2021/06/13 08:44:53;;;;;;;5.53;2.30;;;20.10;62.60;;;20.40;43.15;95513.34;5070587;28;20295;-82
2021/06/13 08:47:22;;;;;;;3.13;2.60;;;20.20;62.50;;;20.38;43.06;95510.09;5049893;28;20208;-82
2021/06/13 08:49:51;;;;;;;2.58;2.15;;;20.20;62.20;;;20.42;43.67;95513.88;5030129;28;20391;-82
2021/06/13 08:52:18;;;;;;;4.30;2.20;;;20.20;62.20;;;20.44;43.44;95509.13;4997086;28;20223;-82
2021/06/13 08:54:45;;;;;;;3.53;2.30;;;20.20;62.20;;;20.41;43.09;95502.44;4905867;28;20322;-83
2021/06/13 08:57:12;;;;;;;3.35;2.13;;;20.20;62.10;;;20.44;43.48;95512.59;4678845;29;20235;-81
2021/06/13 09:00:38;;;;;;;3.58;2.47;;;20.30;62.40;;;20.46;42.62;95518.50;5150597;27;20627;-82
2021/06/13 09:03:06;;;;;;;4.05;2.60;;;20.40;61.70;;;20.48;42.82;95516.41;5092198;28;20197;-82
2021/06/13 09:05:33;;;;;;;4.35;2.70;;;20.30;61.80;;;20.58;42.50;95518.44;5081618;28;20213;-81
2021/06/13 09:08:12;;;;;;;3.47;2.40;;;20.40;62.00;;;20.65;42.32;95523.63;5030352;28;20215;-81
2021/06/13 09:10:43;;;;;;;6.60;2.47;;;20.40;61.60;;;20.64;42.23;95519.31;4972276;28;20243;-82
2021/06/13 09:13:21;;;;;;;4.35;2.42;;;20.40;61.30;;;20.64;41.50;95530.81;5015854;28;20224;-82
2021/06/13 09:16:01;;;;;;;3.42;2.50;;;20.50;61.20;;;20.68;42.04;95535.66;4937662;28;20601;-82
2021/06/13 09:19:21;;;;;;;2.38;2.00;;;20.50;60.90;;;20.74;42.76;95529.41;5128482;27;20600;-82
2021/06/13 09:21:49;;;;;;;5.07;2.40;;;20.50;61.50;;;20.88;42.46;95528.03;5082690;28;20211;-80
2021/06/13 09:24:22;;;;;;;4.78;2.40;;;20.60;62.10;;;21.04;42.49;95525.63;5051001;28;20285;-83
2021/06/13 09:26:52;;;;;;;4.15;2.45;;;20.60;61.90;;;21.22;42.77;95527.22;5060442;28;21240;-81
2021/06/13 09:29:19;;;;;;;3.58;2.22;;;20.70;62.40;;;21.37;42.30;95538.13;4957888;28;20283;-81
2021/06/13 09:31:45;;;;;;;5.45;2.50;;;20.90;62.20;;;21.53;42.01;95533.81;4848478;29;20233;-80
2021/06/13 09:34:18;;;;;;;6.30;2.20;;;21.00;62.90;;;21.64;42.37;95537.47;4765343;29;20238;-80
2021/06/13 09:36:45;;;;;;;2.45;2.10;;;21.10;61.70;;;21.80;41.89;95540.31;4607469;30;20235;-83
2021/06/13 09:39:25;;;;;;;4.55;2.28;;;21.20;61.80;;;21.79;41.00;95541.38;5105759;27;20328;-80
2021/06/13 09:41:55;;;;;;;3.83;2.30;;;21.30;60.90;;;21.83;41.58;95537.16;5078852;28;20205;-81
2021/06/13 09:44:22;;;;;;;3.85;2.10;;;21.40;61.40;;;21.86;41.87;95542.81;5074213;28;20237;-81
2021/06/13 09:46:54;;;;;;;4.68;2.67;;;21.50;61.40;;;21.83;39.70;95561.22;5031841;28;20207;-81
2021/06/13 09:49:21;;;;;;;4.43;2.35;;;21.50;60.00;;;21.59;39.69;95540.06;4947475;28;20240;-82
2021/06/13 09:51:53;;;;;;;4.85;2.20;;;21.50;59.70;;;21.39;40.50;95540.56;4900662;29;20251;-80
2021/06/13 09:54:24;;;;;;;6.85;2.40;;;21.40;60.00;;;21.38;41.28;95553.06;4797479;29;20268;-82
2021/06/13 09:56:50;;;;;;;3.70;2.42;;;21.30;60.80;;;21.48;41.85;95547.06;4617584;30;20326;-82
2021/06/13 09:59:33;;;;;;;6.47;2.35;;;21.30;60.70;;;21.50;41.04;95552.97;5117786;27;20315;-82
2021/06/13 10:02:03;;;;;;;4.07;2.20;;;21.30;60.80;;;21.53;41.39;95555.19;5061144;28;20689;-81
2021/06/13 10:04:37;;;;;;;3.55;2.40;;;21.30;61.10;;;21.61;41.41;95542.50;5061194;28;20650;-82
2021/06/13 10:07:19;;;;;;;5.35;2.22;;;21.30;60.50;;;21.64;40.66;95550.00;5014542;28;20215;-82
2021/06/13 10:09:52;;;;;;;3.22;1.95;;;21.40;60.40;;;21.63;39.79;95551.88;4994697;28;20220;-82
2021/06/13 10:12:20;;;;;;;3.53;2.10;;;21.40;59.10;;;21.62;40.42;95554.75;4911016;28;20733;-82
2021/06/13 10:14:49;;;;;;;4.03;2.00;;;21.40;59.90;;;21.66;40.12;95561.25;4820836;29;20697;-84
2021/06/13 10:17:19;;;;;;;4.07;2.08;;;21.40;59.60;;;21.72;39.85;95558.38;4621639;30;20291;-81
2021/06/13 10:19:57;;;;;;;3.33;2.20;;;21.50;60.10;;;21.82;40.34;95559.59;5115497;27;20400;-82
2021/06/13 10:22:25;;;;;;;2.67;2.17;;;21.40;60.30;;;21.94;40.17;95562.94;5089266;28;20205;-82
2021/06/13 10:24:55;;;;;;;3.55;2.17;;;21.50;60.30;;;22.07;39.69;95557.22;5076531;28;20364;-81
2021/06/13 10:27:21;;;;;;;3.38;2.50;;;21.50;59.70;;;22.14;39.36;95535.69;5050777;28;20210;-81
2021/06/13 10:29:51;;;;;;;3.65;2.00;;;21.60;59.50;;;22.18;40.24;95549.31;5044613;28;20237;-82
2021/06/13 10:32:22;;;;;;;4.55;2.13;;;21.80;60.30;;;22.18;39.17;95547.47;5050722;28;20211;-81
2021/06/13 10:34:50;;;;;;;2.83;2.10;;;21.80;60.40;;;22.23;39.64;95549.41;4945945;28;20235;-81
2021/06/13 10:37:18;;;;;;;2.85;2.20;;;21.80;59.40;;;22.28;38.70;95546.00;4839170;29;20222;-81
2021/06/13 10:39:55;;;;;;;3.58;2.40;;;21.80;58.80;;;22.35;38.49;95565.28;5121323;27;20803;-82
2021/06/13 10:42:23;;;;;;;3.10;2.10;;;21.90;58.40;;;22.38;39.37;95557.59;5085797;28;20211;-82
2021/06/13 10:44:53;;;;;;;5.18;2.13;;;22.00;59.10;;;22.45;39.17;95556.59;5100121;28;20246;-81
2021/06/13 10:47:22;;;;;;;4.32;2.28;;;22.00;59.00;;;22.49;38.85;95569.22;5040554;28;21496;-82
2021/06/13 10:50:03;;;;;;;3.30;2.03;;;22.10;58.90;;;22.49;39.01;95565.75;4951832;28;20234;-82
2021/06/13 10:52:33;;;;;;;3.72;2.17;;;22.10;58.60;;;22.52;37.89;95557.22;4896325;29;20319;-81
2021/06/13 10:55:05;;;;;;;6.32;2.20;;;22.20;57.80;;;22.53;37.78;95556.97;4782975;29;20239;-82
2021/06/13 11:00:38;;;;;;;2.72;2.20;;;22.20;57.90;;;22.66;37.65;95555.75;5149531;27;20625;-82
2021/06/13 11:03:04;;;;;;;3.88;2.05;;;22.20;57.60;;;22.66;37.75;95563.78;5123860;27;20194;-82
2021/06/13 11:05:38;;;;;;;5.13;3.75;;;22.30;57.70;;;22.68;38.85;95555.53;5067332;28;20272;-84
2021/06/13 11:08:05;;;;;;;4.63;2.90;;;22.30;58.60;;;22.74;37.87;95559.03;5081964;28;20212;-82
2021/06/13 11:10:33;;;;;;;3.47;2.30;;;22.30;57.20;;;22.73;37.74;95586.84;5004525;28;20223;-81
2021/06/13 11:13:04;;;;;;;3.45;1.90;;;22.40;57.60;;;22.74;36.66;95577.75;4886250;29;20312;-81
2021/06/13 11:15:48;;;;;;;3.63;1.52;;;22.40;56.00;;;22.77;37.46;95586.09;4829269;29;20274;-82